createdAt,value
2024-01-15T00:00:13.410Z,98328.72
2024-01-15T00:03:06.470Z,98328.80
2024-01-15T00:05:39.619Z,98322.36
2024-01-15T00:08:12.054Z,98318.34
2024-01-15T00:10:44.740Z,98304.95
2024-01-15T00:13:19.243Z,98298.82
2024-01-15T00:15:54.125Z,98293.81
2024-01-15T00:18:28.575Z,98286.33
2024-01-15T00:21:03.680Z,98279.30
2024-01-15T00:23:38.199Z,98274.11
2024-01-15T00:26:13.492Z,98268.90
2024-01-15T00:28:48.450Z,98270.59
2024-01-15T00:31:21.647Z,98270.39
2024-01-15T00:33:56.572Z,98263.65
2024-01-15T00:36:31.561Z,98256.23
2024-01-15T00:39:07.353Z,98245.36
2024-01-15T00:41:42.596Z,98245.98
2024-01-15T00:44:14.954Z,98245.60
2024-01-15T00:46:48.434Z,98236.42
2024-01-15T00:49:25.406Z,98234.29
2024-01-15T00:52:00.009Z,98230.30
2024-01-15T00:54:32.411Z,98222.82
2024-01-15T00:57:07.296Z,98219.60
2024-01-15T00:59:41.876Z,98212.85
2024-01-15T01:02:14.033Z,98205.31
2024-01-15T01:04:46.402Z,98202.68
2024-01-15T01:07:21.756Z,98198.74
2024-01-15T01:09:54.055Z,98194.74
2024-01-15T01:12:29.205Z,98194.36
2024-01-15T01:15:04.416Z,98198.16
2024-01-15T01:17:39.482Z,98197.20
2024-01-15T01:20:14.759Z,98201.77
2024-01-15T01:22:49.350Z,98201.96
2024-01-15T01:25:21.864Z,98191.11
2024-01-15T01:27:54.259Z,98184.89
2024-01-15T01:30:26.438Z,98184.69
2024-01-15T01:33:01.357Z,98183.20
2024-01-15T01:35:36.013Z,98186.04
2024-01-15T01:38:10.546Z,98179.86
2024-01-15T01:40:45.595Z,98177.42
2024-01-15T01:43:20.155Z,98178.61
2024-01-15T01:45:52.451Z,98175.32
2024-01-15T01:48:24.808Z,98167.52
2024-01-15T01:50:59.865Z,98165.81
2024-01-15T01:53:34.408Z,98162.28
2024-01-15T01:56:08.396Z,98156.08
2024-01-15T01:58:43.214Z,98145.77
2024-01-15T02:01:16.208Z,98145.45
2024-01-15T02:03:51.536Z,98146.19
2024-01-15T02:06:26.243Z,98146.73
2024-01-15T02:08:59.520Z,98139.84
2024-01-15T02:11:32.393Z,98140.98
2024-01-15T02:14:05.551Z,98137.84
2024-01-15T02:16:37.823Z,98145.02
2024-01-15T02:19:19.847Z,98142.41
2024-01-15T02:21:52.708Z,98150.87
2024-01-15T02:24:25.189Z,98149.50
2024-01-15T02:26:59.889Z,98143.84
2024-01-15T02:29:34.869Z,98142.28
2024-01-15T02:32:10.964Z,98141.53
2024-01-15T02:34:43.405Z,98146.63
2024-01-15T02:37:18.216Z,98144.09
2024-01-15T02:39:50.429Z,98141.18
2024-01-15T02:42:22.780Z,98133.18
2024-01-15T02:44:54.901Z,98126.52
2024-01-15T02:47:28.056Z,98118.14
2024-01-15T02:50:02.591Z,98101.38
2024-01-15T02:52:34.944Z,98101.73
2024-01-15T02:55:08.388Z,98094.52
2024-01-15T02:57:40.612Z,98090.50
2024-01-15T03:00:14.234Z,98086.53
2024-01-15T03:02:49.084Z,98089.98
2024-01-15T03:05:24.078Z,98090.96
2024-01-15T03:07:56.238Z,98092.20
2024-01-15T03:10:28.581Z,98091.98
2024-01-15T03:13:01.181Z,98082.64
2024-01-15T03:15:35.734Z,98082.77
2024-01-15T03:18:08.930Z,98081.84
2024-01-15T03:20:43.788Z,98073.83
2024-01-15T03:23:16.379Z,98069.88
2024-01-15T03:25:51.250Z,98065.34
2024-01-15T03:28:23.475Z,98057.06
2024-01-15T03:30:56.033Z,98059.36
2024-01-15T03:33:28.471Z,98059.20
2024-01-15T03:36:00.850Z,98063.85
2024-01-15T03:38:33.062Z,98063.00
2024-01-15T03:41:08.920Z,98063.94
2024-01-15T03:43:41.851Z,98055.33
2024-01-15T03:46:14.949Z,98060.99
2024-01-15T03:48:47.329Z,98065.69
2024-01-15T03:51:21.329Z,98063.27
2024-01-15T03:53:56.618Z,98058.82
2024-01-15T03:56:28.852Z,98061.53
2024-01-15T03:59:01.081Z,98054.84
2024-01-15T04:01:33.576Z,98048.13
2024-01-15T04:04:06.159Z,98045.89
2024-01-15T04:06:40.927Z,98046.85
2024-01-15T04:09:14.353Z,98044.02
2024-01-15T04:11:49.038Z,98043.08
2024-01-15T04:14:23.629Z,98040.85
2024-01-15T04:16:58.061Z,98038.04
2024-01-15T04:19:30.422Z,98038.05
2024-01-15T04:22:05.095Z,98042.77
2024-01-15T04:24:37.631Z,98038.00
2024-01-15T04:27:10.876Z,98038.77
2024-01-15T04:29:46.865Z,98028.26
2024-01-15T04:32:18.991Z,98022.52
2024-01-15T04:34:51.182Z,98015.20
2024-01-15T04:37:23.865Z,98006.05
2024-01-15T04:39:56.492Z,98001.02
2024-01-15T04:42:31.554Z,98001.51
2024-01-15T04:45:07.527Z,97998.58
2024-01-15T04:47:44.140Z,98003.79
2024-01-15T04:50:17.373Z,98003.33
2024-01-15T04:52:49.603Z,98001.40
2024-01-15T04:55:26.541Z,97991.48
2024-01-15T04:57:59.204Z,97991.59
2024-01-15T05:00:31.504Z,97994.86
2024-01-15T05:03:06.816Z,97996.55
2024-01-15T05:05:39.979Z,98002.59
2024-01-15T05:08:12.600Z,98002.84
2024-01-15T05:10:47.322Z,98005.32
2024-01-15T05:13:19.436Z,98002.52
2024-01-15T05:15:51.713Z,97992.76
2024-01-15T05:18:24.383Z,97989.20
2024-01-15T05:21:01.352Z,97991.55
2024-01-15T05:23:36.411Z,97990.98
2024-01-15T05:26:10.250Z,97985.02
2024-01-15T05:28:45.645Z,97982.63
2024-01-15T05:31:18.067Z,97978.05
2024-01-15T05:33:53.053Z,97980.86
2024-01-15T05:36:27.510Z,97990.10
2024-01-15T05:39:00.086Z,97993.16
2024-01-15T05:41:34.868Z,97993.27
2024-01-15T05:44:09.352Z,97993.88
2024-01-15T05:46:41.698Z,98010.35
2024-01-15T05:49:14.343Z,98009.52
2024-01-15T05:51:49.324Z,98012.96
2024-01-15T05:54:24.547Z,98015.14
2024-01-15T05:56:56.858Z,98022.84
2024-01-15T05:59:33.484Z,98024.94
2024-01-15T06:02:06.221Z,98017.41
2024-01-15T06:04:38.427Z,98024.13
2024-01-15T06:07:12.835Z,98030.27
2024-01-15T06:09:45.208Z,98039.02
2024-01-15T06:12:19.861Z,98026.86
2024-01-15T06:14:54.307Z,98033.11
2024-01-15T06:17:27.003Z,98041.13
2024-01-15T06:20:01.777Z,98036.69
2024-01-15T06:22:37.243Z,98032.14
2024-01-15T06:25:11.049Z,98038.77
2024-01-15T06:27:43.215Z,98041.92
2024-01-15T06:30:17.773Z,98039.08
2024-01-15T06:32:50.266Z,98042.60
2024-01-15T06:35:23.758Z,98044.61
2024-01-15T06:37:56.325Z,98044.62
2024-01-15T06:40:28.417Z,98036.34
2024-01-15T06:43:00.588Z,98037.65
2024-01-15T06:45:32.838Z,98038.85
2024-01-15T06:48:08.814Z,98041.54
2024-01-15T06:50:41.009Z,98050.64
2024-01-15T06:53:16.145Z,98041.09
2024-01-15T06:55:50.495Z,98050.27
2024-01-15T06:58:22.786Z,98055.86
2024-01-15T07:00:54.984Z,98054.48
2024-01-15T07:03:27.756Z,98054.73
2024-01-15T07:06:00.130Z,98056.30
2024-01-15T07:08:32.862Z,98063.05
2024-01-15T07:11:07.604Z,98059.14
2024-01-15T07:13:39.975Z,98060.18
2024-01-15T07:16:16.501Z,98057.31
2024-01-15T07:18:52.356Z,98063.71
2024-01-15T07:21:26.937Z,98061.20
2024-01-15T07:23:59.652Z,98065.94
2024-01-15T07:26:32.350Z,98067.27
2024-01-15T07:29:04.828Z,98069.94
2024-01-15T07:31:39.831Z,98066.40
2024-01-15T07:34:15.125Z,98065.95
2024-01-15T07:36:48.120Z,98065.00
2024-01-15T07:39:20.990Z,98064.34
2024-01-15T07:41:58.265Z,98063.02
2024-01-15T07:44:30.629Z,98065.33
2024-01-15T07:47:05.451Z,98066.06
2024-01-15T07:49:40.730Z,98058.76
2024-01-15T07:52:14.868Z,98058.86
2024-01-15T07:54:49.385Z,98062.54
2024-01-15T07:57:32.070Z,98068.08
2024-01-15T08:00:06.308Z,98067.42
2024-01-15T08:02:41.314Z,98061.13
2024-01-15T08:05:16.158Z,98058.79
2024-01-15T08:07:50.425Z,98051.75
2024-01-15T08:10:22.762Z,98046.83
2024-01-15T08:12:57.811Z,98040.54
2024-01-15T08:15:31.727Z,98030.38
2024-01-15T08:18:07.456Z,98015.55
2024-01-15T08:20:42.529Z,98023.69
2024-01-15T08:23:14.855Z,98017.08
2024-01-15T08:25:48.416Z,98026.28
2024-01-15T08:28:20.905Z,98028.59
2024-01-15T08:30:53.365Z,98025.43
2024-01-15T08:33:28.004Z,98019.77
2024-01-15T08:36:02.833Z,98017.75
2024-01-15T08:38:37.412Z,98018.52
2024-01-15T08:41:11.158Z,98021.13
2024-01-15T08:43:48.779Z,98013.00
2024-01-15T08:46:21.763Z,98015.92
2024-01-15T08:49:01.141Z,98020.42
2024-01-15T08:51:35.605Z,98020.98
2024-01-15T08:54:09.731Z,98021.55
2024-01-15T08:56:42.427Z,98020.02
2024-01-15T08:59:17.491Z,98023.33
2024-01-15T09:01:52.173Z,98026.17
2024-01-15T09:04:25.119Z,98028.59
2024-01-15T09:06:57.648Z,98026.05
2024-01-15T09:09:30.570Z,98024.21
2024-01-15T09:12:03.160Z,98024.00
2024-01-15T09:14:38.543Z,98025.27
2024-01-15T09:17:30.076Z,98027.05
2024-01-15T09:20:05.610Z,98024.58
2024-01-15T09:22:38.158Z,98027.66
2024-01-15T09:25:11.881Z,98027.55
2024-01-15T09:27:44.825Z,98025.34
2024-01-15T09:30:18.647Z,98032.35
2024-01-15T09:32:53.526Z,98026.98
2024-01-15T09:35:30.447Z,98023.17
2024-01-15T09:38:01.711Z,98028.28
2024-01-15T09:40:36.053Z,98028.09
2024-01-15T09:43:08.955Z,98019.14
2024-01-15T09:45:43.981Z,98037.33
2024-01-15T09:48:16.672Z,98038.19
2024-01-15T09:50:49.826Z,98043.58
2024-01-15T09:53:24.912Z,98044.64
2024-01-15T09:55:57.607Z,98040.09
2024-01-15T09:58:31.087Z,98040.61
2024-01-15T10:01:08.375Z,98039.80
2024-01-15T10:03:42.108Z,98044.70
2024-01-15T10:06:22.658Z,98044.40
2024-01-15T10:08:56.335Z,98039.46
2024-01-15T10:11:29.046Z,98043.77
2024-01-15T10:14:07.144Z,98048.50
2024-01-15T10:16:46.278Z,98045.65
2024-01-15T10:19:20.906Z,98040.60
2024-01-15T10:21:55.731Z,98037.87
2024-01-15T10:24:31.020Z,98029.97
2024-01-15T10:27:13.574Z,98042.26
2024-01-15T10:29:46.327Z,98041.14
2024-01-15T10:32:25.342Z,98041.04
2024-01-15T10:34:58.586Z,98029.41
2024-01-15T10:37:36.942Z,98028.06
2024-01-15T10:40:10.962Z,98030.73
2024-01-15T10:42:43.225Z,98021.27
2024-01-15T10:45:15.869Z,98023.49
2024-01-15T10:47:49.868Z,98023.50
2024-01-15T10:50:22.552Z,98020.45
2024-01-15T10:52:58.773Z,98019.67
2024-01-15T10:55:31.810Z,98010.66
2024-01-15T10:58:05.055Z,98012.52
2024-01-15T11:00:41.150Z,98016.08
2024-01-15T11:03:14.888Z,98020.15
2024-01-15T11:05:48.216Z,98014.00
2024-01-15T11:08:24.075Z,98013.11
2024-01-15T11:10:58.678Z,98009.64
2024-01-15T11:13:45.451Z,98002.30
2024-01-15T11:16:18.792Z,97994.73
2024-01-15T11:19:09.569Z,97991.42
2024-01-15T11:21:46.766Z,97997.48
2024-01-15T11:24:38.795Z,98002.58
2024-01-15T11:27:13.977Z,98002.06
2024-01-15T11:29:50.323Z,98005.13
2024-01-15T11:32:42.409Z,98003.89
2024-01-15T11:35:16.320Z,98006.80
2024-01-15T11:38:07.828Z,98006.86
2024-01-15T11:40:45.616Z,98011.39
2024-01-15T11:43:24.395Z,98008.24
2024-01-15T11:45:56.809Z,98012.83
2024-01-15T11:48:45.999Z,98012.48
2024-01-15T11:51:21.188Z,98007.11
2024-01-15T11:54:04.322Z,98010.07
2024-01-15T11:56:39.555Z,98001.56
2024-01-15T11:59:14.482Z,98006.27
2024-01-15T12:01:49.724Z,98005.40
2024-01-15T12:04:25.095Z,97996.20
2024-01-15T12:06:59.713Z,97996.75
2024-01-15T12:09:32.695Z,97997.35
2024-01-15T12:12:13.751Z,97990.41
2024-01-15T12:14:48.835Z,97997.17
2024-01-15T12:17:21.325Z,97994.38
2024-01-15T12:19:53.752Z,97994.64
2024-01-15T12:22:26.239Z,97994.14
2024-01-15T12:24:59.176Z,97999.96
2024-01-15T12:27:33.594Z,98004.11
2024-01-15T12:30:08.911Z,98004.17
2024-01-15T12:32:43.022Z,98005.80
2024-01-15T12:35:15.896Z,98005.70
2024-01-15T12:37:50.362Z,98004.16
2024-01-15T12:40:24.825Z,98009.70
2024-01-15T12:42:57.183Z,98007.30
2024-01-15T12:45:29.693Z,98004.06
2024-01-15T12:48:03.301Z,98002.42
2024-01-15T12:50:37.990Z,97999.42
2024-01-15T12:53:12.767Z,98009.77
2024-01-15T12:55:45.170Z,97992.42
2024-01-15T12:58:20.130Z,97988.91
2024-01-15T13:00:53.852Z,97995.31
2024-01-15T13:03:27.730Z,97992.61
2024-01-15T13:06:00.643Z,97995.46
2024-01-15T13:08:33.207Z,97995.77
2024-01-15T13:11:05.817Z,98001.09
2024-01-15T13:13:38.953Z,97988.52
2024-01-15T13:16:12.083Z,97990.55
2024-01-15T13:18:44.959Z,97990.86
2024-01-15T13:21:20.025Z,97996.27
2024-01-15T13:23:52.579Z,97990.84
2024-01-15T13:26:26.125Z,97994.02
2024-01-15T13:29:00.789Z,97995.94
2024-01-15T13:31:33.308Z,97996.50
2024-01-15T13:34:06.170Z,97990.63
2024-01-15T13:36:41.038Z,97984.56
2024-01-15T13:39:17.546Z,97984.38
2024-01-15T13:41:53.511Z,97984.64
2024-01-15T13:44:31.412Z,97979.61
2024-01-15T13:47:03.704Z,97986.98
2024-01-15T13:49:37.181Z,97988.04
2024-01-15T13:52:11.937Z,97989.00
2024-01-15T13:54:50.364Z,97996.65
2024-01-15T13:57:25.918Z,97991.92
2024-01-15T14:00:03.609Z,97998.95
2024-01-15T14:02:37.891Z,98004.98
2024-01-15T14:05:13.984Z,98000.90
2024-01-15T14:07:51.187Z,98016.63
2024-01-15T14:10:23.548Z,98017.98
2024-01-15T14:12:55.847Z,98019.31
2024-01-15T14:15:28.781Z,98016.04
2024-01-15T14:18:02.396Z,98020.35
2024-01-15T14:20:35.148Z,98024.02
2024-01-15T14:23:07.530Z,98032.56
2024-01-15T14:25:40.486Z,98031.45
2024-01-15T14:28:13.084Z,98035.00
2024-01-15T14:30:45.631Z,98041.65
2024-01-15T14:33:20.699Z,98034.71
2024-01-15T14:35:53.258Z,98030.33
2024-01-15T14:38:25.527Z,98035.12
2024-01-15T14:40:57.993Z,98031.73
2024-01-15T14:43:30.359Z,98033.36
2024-01-15T14:46:05.113Z,98034.86
2024-01-15T14:48:37.698Z,98039.06
2024-01-15T14:51:10.179Z,98032.86
2024-01-15T14:53:42.572Z,98032.83
2024-01-15T14:56:17.427Z,98036.45
2024-01-15T14:58:51.173Z,98037.35
2024-01-15T15:01:24.383Z,98035.88
2024-01-15T15:04:01.663Z,98039.02
2024-01-15T15:06:37.354Z,98039.13
2024-01-15T15:09:11.332Z,98041.85
2024-01-15T15:11:43.780Z,98042.26
2024-01-15T15:14:18.632Z,98044.98
2024-01-15T15:16:53.682Z,98047.64
2024-01-15T15:19:26.427Z,98045.77
2024-01-15T15:22:01.101Z,98048.40
2024-01-15T15:24:34.283Z,98055.61
2024-01-15T15:27:07.806Z,98053.13
2024-01-15T15:29:42.454Z,98053.33
2024-01-15T15:32:15.150Z,98056.69
2024-01-15T15:34:49.809Z,98063.17
2024-01-15T15:37:22.425Z,98067.70
2024-01-15T15:39:55.155Z,98072.50
2024-01-15T15:42:27.813Z,98073.57
2024-01-15T15:45:02.573Z,98068.63
2024-01-15T15:47:37.550Z,98069.45
2024-01-15T15:50:11.712Z,98072.27
2024-01-15T15:52:44.346Z,98074.91
2024-01-15T15:55:17.075Z,98081.77
2024-01-15T15:57:51.787Z,98083.55
2024-01-15T16:00:25.261Z,98089.98
2024-01-15T16:02:57.569Z,98095.17
2024-01-15T16:05:42.358Z,98084.44
2024-01-15T16:08:22.770Z,98102.26
2024-01-15T16:10:57.489Z,98109.15
2024-01-15T16:13:30.822Z,98110.95
2024-01-15T16:23:09.442Z,98110.51
2024-01-15T16:23:22.906Z,98113.91
2024-01-15T16:23:38.332Z,98116.28
2024-01-15T16:24:51.166Z,98117.77
2024-01-15T16:27:28.477Z,98120.02
2024-01-15T16:30:01.177Z,98120.00
2024-01-15T16:32:35.920Z,98120.73
2024-01-15T16:35:10.049Z,98125.66
2024-01-15T16:37:42.654Z,98126.14
2024-01-15T16:40:15.932Z,98128.59
2024-01-15T16:42:49.548Z,98128.99
2024-01-15T16:45:22.431Z,98130.41
2024-01-15T16:47:54.770Z,98129.91
2024-01-15T16:50:27.227Z,98135.32
2024-01-15T16:52:59.487Z,98140.93
2024-01-15T16:55:34.629Z,98139.42
2024-01-15T16:58:07.696Z,98142.53
2024-01-15T17:00:39.835Z,98143.86
2024-01-15T17:03:14.720Z,98150.26
2024-01-15T17:05:47.505Z,98147.97
2024-01-15T17:08:22.243Z,98155.59
2024-01-15T17:10:54.875Z,98157.96
2024-01-15T17:13:29.747Z,98154.73
2024-01-15T17:16:02.389Z,98162.98
2024-01-15T17:18:34.866Z,98162.94
2024-01-15T17:21:08.484Z,98164.28
2024-01-15T17:23:40.890Z,98159.38
2024-01-15T17:26:13.181Z,98161.52
2024-01-15T17:28:48.155Z,98161.04
2024-01-15T17:31:22.796Z,98154.83
2024-01-15T17:33:59.965Z,98160.32
2024-01-15T17:36:32.624Z,98164.42
2024-01-15T17:39:06.705Z,98166.89
2024-01-15T17:41:39.319Z,98166.74
2024-01-15T17:44:14.276Z,98172.67
2024-01-15T17:46:46.891Z,98171.00
2024-01-15T17:49:19.301Z,98171.16
2024-01-15T17:51:53.287Z,98173.34
2024-01-15T17:54:27.845Z,98175.11
2024-01-15T17:57:02.248Z,98178.81
2024-01-15T17:59:34.633Z,98180.20
2024-01-15T18:02:07.647Z,98186.65
2024-01-15T18:04:40.232Z,98186.04
2024-01-15T18:07:15.231Z,98191.21
2024-01-15T18:09:50.201Z,98192.78
2024-01-15T18:12:22.779Z,98193.30
2024-01-15T18:14:55.705Z,98198.75
2024-01-15T18:17:28.242Z,98202.23
2024-01-15T18:20:00.579Z,98203.80
2024-01-15T18:22:32.839Z,98211.15
2024-01-15T18:25:05.382Z,98216.08
2024-01-15T18:27:37.585Z,98213.66
2024-01-15T18:30:13.275Z,98222.83
2024-01-15T18:32:45.657Z,98219.85
2024-01-15T18:35:18.319Z,98222.61
2024-01-15T18:37:52.708Z,98225.70
2024-01-15T18:40:36.146Z,98226.27
2024-01-15T18:43:08.523Z,98229.19
2024-01-15T18:45:43.993Z,98233.25
2024-01-15T18:48:16.685Z,98234.30
2024-01-15T18:50:49.351Z,98230.08
2024-01-15T18:53:26.239Z,98236.05
2024-01-15T18:55:57.551Z,98235.56
2024-01-15T18:58:30.198Z,98234.25
2024-01-15T19:01:02.521Z,98239.92
2024-01-15T19:03:39.813Z,98245.52
2024-01-15T19:06:16.427Z,98243.84
2024-01-15T19:08:52.289Z,98250.41
2024-01-15T19:11:25.329Z,98247.06
2024-01-15T19:14:00.740Z,98249.99
2024-01-15T19:16:33.264Z,98254.17
2024-01-15T19:19:05.751Z,98253.02
2024-01-15T19:21:40.877Z,98253.63
2024-01-15T19:24:13.986Z,98259.34
2024-01-15T19:26:46.576Z,98259.36
2024-01-15T19:29:19.333Z,98252.34
2024-01-15T19:31:51.879Z,98258.21
2024-01-15T19:34:24.149Z,98262.39
2024-01-15T19:36:58.541Z,98267.80
2024-01-15T19:39:31.368Z,98271.84
2024-01-15T19:42:04.574Z,98273.88
2024-01-15T19:44:36.887Z,98277.98
2024-01-15T19:47:10.346Z,98277.85
2024-01-15T19:49:47.062Z,98268.79
2024-01-15T19:52:21.853Z,98284.98
2024-01-15T19:55:01.072Z,98281.39
2024-01-15T19:57:41.593Z,98289.36
2024-01-15T20:00:15.590Z,98298.28
2024-01-15T20:02:52.978Z,98299.17
2024-01-15T20:05:26.234Z,98302.09
2024-01-15T20:08:05.179Z,98304.58
2024-01-15T20:10:42.595Z,98304.95
2024-01-15T20:13:17.615Z,98301.84
2024-01-15T20:15:50.125Z,98311.35
2024-01-15T20:18:22.551Z,98309.48
2024-01-15T20:20:55.084Z,98314.73
2024-01-15T20:23:27.685Z,98322.88
2024-01-15T20:26:00.291Z,98326.48
2024-01-15T20:28:33.186Z,98335.02
2024-01-15T20:31:06.342Z,98334.51
2024-01-15T20:33:41.965Z,98344.02
2024-01-15T20:36:14.689Z,98335.27
2024-01-15T20:38:47.377Z,98346.54
2024-01-15T20:41:20.245Z,98353.01
2024-01-15T20:43:56.227Z,98352.95
2024-01-15T20:46:31.616Z,98353.86
2024-01-15T20:49:06.369Z,98361.57
2024-01-15T20:51:38.765Z,98368.48
2024-01-15T20:54:11.222Z,98362.42
2024-01-15T20:56:43.753Z,98363.66
2024-01-15T20:59:18.999Z,98366.40
2024-01-15T21:01:52.189Z,98370.43
2024-01-15T21:04:27.121Z,98372.72
2024-01-15T21:07:00.352Z,98374.95
2024-01-15T21:09:32.595Z,98375.79
2024-01-15T21:12:07.406Z,98380.63
2024-01-15T21:14:48.127Z,98376.63
2024-01-15T21:17:22.679Z,98382.03
2024-01-15T21:19:57.156Z,98393.13
2024-01-15T21:22:30.941Z,98394.83
2024-01-15T21:25:03.654Z,98384.69
2024-01-15T21:27:36.159Z,98398.85
2024-01-15T21:30:12.006Z,98410.01
2024-01-15T21:32:47.588Z,98414.70
2024-01-15T21:35:19.849Z,98419.70
2024-01-15T21:37:52.289Z,98421.98
2024-01-15T21:40:24.651Z,98421.73
2024-01-15T21:42:57.537Z,98424.96
2024-01-15T21:45:30.321Z,98430.66
2024-01-15T21:48:02.909Z,98433.17
2024-01-15T21:50:36.503Z,98434.14
2024-01-15T21:53:10.430Z,98435.31
2024-01-15T21:55:45.290Z,98434.03
2024-01-15T21:58:17.759Z,98436.86
2024-01-15T22:00:50.125Z,98440.55
2024-01-15T22:03:22.826Z,98443.99
2024-01-15T22:05:56.342Z,98442.30
2024-01-15T22:08:28.836Z,98443.28
2024-01-15T22:11:02.347Z,98445.98
2024-01-15T22:13:35.005Z,98445.19
2024-01-15T22:16:08.043Z,98450.30
2024-01-15T22:18:40.350Z,98451.08
2024-01-15T22:21:12.690Z,98447.48
2024-01-15T22:23:45.193Z,98454.01
2024-01-15T22:26:17.671Z,98448.55
2024-01-15T22:28:51.081Z,98449.19
2024-01-15T22:31:23.380Z,98451.03
2024-01-15T22:33:55.691Z,98455.02
2024-01-15T22:36:27.896Z,98455.23
2024-01-15T22:39:00.289Z,98451.65
2024-01-15T22:41:32.683Z,98457.80
2024-01-15T22:44:04.921Z,98459.23
2024-01-15T22:46:37.314Z,98461.08
2024-01-15T22:49:09.898Z,98463.48
2024-01-15T22:51:42.251Z,98469.46
2024-01-15T22:54:15.237Z,98468.87
2024-01-15T22:56:47.350Z,98473.09
2024-01-15T22:59:22.956Z,98468.16
2024-01-15T23:01:55.670Z,98472.38
2024-01-15T23:04:28.188Z,98470.36
2024-01-15T23:07:03.431Z,98478.44
2024-01-15T23:09:35.931Z,98480.20
2024-01-15T23:12:09.666Z,98475.91
2024-01-15T23:14:44.616Z,98477.91
2024-01-15T23:17:20.072Z,98477.80
2024-01-15T23:19:52.560Z,98482.45
2024-01-15T23:22:25.134Z,98480.33
2024-01-15T23:24:57.177Z,98483.05
2024-01-15T23:27:30.125Z,98480.24
2024-01-15T23:30:02.228Z,98481.88
2024-01-15T23:32:37.047Z,98478.13
2024-01-15T23:35:10.579Z,98477.59
2024-01-15T23:37:45.327Z,98479.77
2024-01-15T23:40:17.950Z,98485.02
2024-01-15T23:42:50.306Z,98488.90
2024-01-15T23:45:22.533Z,98491.31
2024-01-15T23:47:54.963Z,98493.54
2024-01-15T23:50:27.664Z,98497.04
2024-01-15T23:53:00.301Z,98500.52
2024-01-15T23:55:32.730Z,98504.39
2024-01-15T23:58:05.102Z,98507.36
